Time;durP1;ratioP1;P1;durP2;ratioP2;P2;SDS_P1;SDS_P2;PMS_P1;PMS_P2;Temp;Humidity;BMP_temperature;BMP_pressure;BME280_temperature;BME280_humidity;BME280_pressure;Samples;Min_cycle;Max_cycle;Signal;HPM_P1;HPM_P2
2022/08/27 00:01:38;;;;;;;4.78;0.80;;;15.00;99.90;;;;;;5045990;28;20496;-36
2022/08/27 00:04:04;;;;;;;4.72;0.88;;;15.30;99.90;;;;;;5046300;28;20055;-36
2022/08/27 00:06:29;;;;;;;3.30;0.52;;;15.00;99.90;;;;;;5046283;28;20045;-36
2022/08/27 00:08:55;;;;;;;3.53;0.65;;;15.90;99.90;;;;;;5046070;28;20041;-36
2022/08/27 00:11:24;;;;;;;5.93;0.65;;;15.00;99.90;;;;;;5045962;28;20061;-36
2022/08/27 00:13:50;;;;;;;5.82;0.98;;;15.00;99.90;;;;;;5045838;28;20507;-36
2022/08/27 00:16:16;;;;;;;5.00;0.85;;;15.00;99.90;;;;;;5046245;28;20041;-36
2022/08/27 00:18:44;;;;;;;3.92;0.77;;;15.00;99.90;;;;;;5046017;28;20036;-36
2022/08/27 00:21:11;;;;;;;4.82;1.13;;;15.30;99.90;;;;;;5046110;28;20055;-36
2022/08/27 00:23:38;;;;;;;5.15;0.75;;;15.00;99.90;;;;;;5045758;28;20488;-35
2022/08/27 00:26:05;;;;;;;5.22;0.80;;;15.00;99.90;;;;;;5045850;28;20495;-36
2022/08/27 00:28:32;;;;;;;4.55;0.77;;;15.00;99.90;;;;;;5046035;28;20380;-36
2022/08/27 00:30:58;;;;;;;3.60;0.70;;;15.00;99.90;;;;;;5046230;28;20067;-36
2022/08/27 00:33:25;;;;;;;5.45;1.10;;;15.00;99.90;;;;;;5045997;28;20053;-36
2022/08/27 00:35:51;;;;;;;4.18;1.02;;;15.00;99.90;;;;;;5045892;28;20156;-36
2022/08/27 00:38:19;;;;;;;3.55;1.23;;;15.10;99.90;;;;;;5045833;28;20570;-36
2022/08/27 00:40:46;;;;;;;3.95;0.68;;;15.10;99.90;;;;;;5045911;28;20069;-36
2022/08/27 00:43:12;;;;;;;3.20;0.75;;;15.10;99.90;;;;;;5046197;28;20045;-37
2022/08/27 00:45:43;;;;;;;3.85;0.90;;;15.10;99.90;;;;;;5045330;28;20084;-36
2022/08/27 00:48:14;;;;;;;2.53;0.50;;;15.10;99.90;;;;;;5045449;28;20052;-36
2022/08/27 00:50:46;;;;;;;4.55;0.65;;;15.10;99.90;;;;;;5045312;28;20037;-36
2022/08/27 00:53:16;;;;;;;;;;;15.10;99.90;;;;;;5048108;28;20052;-36
2022/08/27 00:55:47;;;;;;;8.23;1.45;;;15.00;99.90;;;;;;5049472;28;20286;-36
2022/08/27 00:58:16;;;;;;;5.23;1.03;;;15.00;99.90;;;;;;5049763;28;20163;-36
2022/08/27 01:00:44;;;;;;;3.30;0.75;;;15.10;99.90;;;;;;5049959;28;20036;-36
2022/08/27 01:03:10;;;;;;;2.42;0.60;;;15.00;99.90;;;;;;5049703;28;20053;-36
2022/08/27 01:05:37;;;;;;;7.13;1.17;;;15.00;99.90;;;;;;5049623;28;20063;-36
2022/08/27 01:08:08;;;;;;;3.35;0.77;;;15.10;99.90;;;;;;5049850;28;20087;-36
2022/08/27 01:10:36;;;;;;;2.47;0.63;;;15.90;99.90;;;;;;5048171;28;20115;-36
2022/08/27 01:13:02;;;;;;;5.63;1.00;;;15.00;99.90;;;;;;5049258;28;20311;-36
2022/08/27 01:15:29;;;;;;;5.72;0.77;;;15.50;99.90;;;;;;5049709;28;20455;-36
2022/08/27 01:17:56;;;;;;;5.30;0.63;;;15.00;99.90;;;;;;5049568;28;20068;-36
2022/08/27 01:20:30;;;;;;;3.78;0.70;;;14.90;99.90;;;;;;5049821;28;20033;-36
2022/08/27 01:23:21;;;;;;;5.32;0.52;;;14.80;99.90;;;;;;5049504;28;20071;-36
2022/08/27 01:25:47;;;;;;;4.72;0.95;;;14.80;99.90;;;;;;5049335;28;20562;-36
2022/08/27 01:28:13;;;;;;;5.95;0.85;;;14.70;99.90;;;;;;5049344;28;20058;-36
2022/08/27 01:30:40;;;;;;;3.88;0.77;;;14.70;99.90;;;;;;5049778;28;20045;-36
2022/08/27 01:33:15;;;;;;;5.93;0.63;;;14.90;99.90;;;;;;5049276;28;20124;-36
2022/08/27 01:35:42;;;;;;;2.70;0.77;;;14.80;99.90;;;;;;5049055;28;20053;-36
2022/08/27 01:38:09;;;;;;;3.50;0.57;;;14.70;99.90;;;;;;5048897;28;20056;-36
2022/08/27 01:40:36;;;;;;;4.82;0.80;;;15.00;99.90;;;;;;5048929;28;20041;-36
2022/08/27 01:43:02;;;;;;;4.60;0.90;;;14.60;99.90;;;;;;5048496;28;20052;-36
2022/08/27 01:45:32;;;;;;;3.65;0.82;;;14.60;99.90;;;;;;5049322;28;20041;-36
2022/08/27 01:47:59;;;;;;;4.15;0.47;;;15.20;99.90;;;;;;5048519;28;20045;-36
2022/08/27 01:50:34;;;;;;;4.65;0.80;;;14.60;99.90;;;;;;5048829;28;20098;-36
2022/08/27 01:53:07;;;;;;;2.28;0.60;;;14.60;99.90;;;;;;5048365;28;20406;-36
2022/08/27 01:55:34;;;;;;;2.58;0.70;;;14.90;99.90;;;;;;5048741;28;20055;-36
2022/08/27 01:58:00;;;;;;;6.30;0.60;;;14.60;99.90;;;;;;5048790;28;20091;-36
2022/08/27 02:00:30;;;;;;;5.90;0.90;;;14.50;99.90;;;;;;5049073;28;20505;-36
2022/08/27 02:02:57;;;;;;;4.72;0.95;;;14.40;99.90;;;;;;5048897;28;20075;-36
2022/08/27 02:05:23;;;;;;;5.05;0.60;;;14.40;99.90;;;;;;5048054;28;20057;-36
2022/08/27 02:07:49;;;;;;;4.78;0.75;;;14.30;99.90;;;;;;5048524;28;20079;-36
2022/08/27 02:10:19;;;;;;;7.38;1.00;;;14.20;99.90;;;;;;5048592;28;20063;-36
2022/08/27 02:12:45;;;;;;;4.78;0.75;;;14.20;99.90;;;;;;5048775;28;20045;-36
2022/08/27 02:15:11;;;;;;;4.68;1.10;;;14.00;99.90;;;;;;5048549;28;20067;-36
2022/08/27 02:17:37;;;;;;;4.45;1.30;;;13.90;99.90;;;;;;5048733;28;20037;-36
2022/08/27 02:20:05;;;;;;;4.60;0.70;;;13.80;99.90;;;;;;5047961;28;20048;-36
2022/08/27 02:22:31;;;;;;;5.47;0.90;;;13.70;99.90;;;;;;5048345;28;20045;-36
2022/08/27 02:24:56;;;;;;;3.95;0.60;;;13.60;99.90;;;;;;5048122;28;20063;-36
2022/08/27 02:27:22;;;;;;;6.55;0.60;;;13.60;99.90;;;;;;5048054;28;20451;-36
2022/08/27 02:29:50;;;;;;;5.53;0.77;;;13.60;99.90;;;;;;5048081;28;20103;-35
2022/08/27 02:32:16;;;;;;;2.97;1.45;;;13.40;99.90;;;;;;5048085;28;20115;-36
2022/08/27 02:34:42;;;;;;;3.50;0.90;;;13.30;99.90;;;;;;5047925;28;20076;-36
2022/08/27 02:37:08;;;;;;;4.43;0.77;;;13.30;99.90;;;;;;5047625;28;20056;-36
2022/08/27 02:39:34;;;;;;;10.27;1.35;;;13.40;99.90;;;;;;5047869;28;20048;-36
2022/08/27 02:42:00;;;;;;;6.55;0.93;;;13.20;99.90;;;;;;5047474;28;20541;-36
2022/08/27 02:44:26;;;;;;;4.53;0.98;;;13.20;99.90;;;;;;5047714;28;20084;-36
2022/08/27 02:46:51;;;;;;;3.75;0.88;;;13.20;99.90;;;;;;5047789;28;20041;-36
2022/08/27 02:49:17;;;;;;;5.60;0.80;;;13.20;99.90;;;;;;5047652;28;20044;-36
2022/08/27 02:51:43;;;;;;;6.18;1.15;;;13.20;99.90;;;;;;5047613;28;20120;-36
2022/08/27 02:54:09;;;;;;;4.13;0.90;;;13.50;99.90;;;;;;5046724;28;20049;-36
2022/08/27 02:56:35;;;;;;;5.50;0.90;;;13.10;99.90;;;;;;5047352;28;20048;-36
2022/08/27 02:59:01;;;;;;;2.22;0.68;;;13.20;99.90;;;;;;5047135;28;20041;-36
2022/08/27 03:01:27;;;;;;;6.20;1.30;;;13.20;99.90;;;;;;5047575;28;20480;-35
2022/08/27 03:03:53;;;;;;;4.35;1.23;;;13.20;99.90;;;;;;5047255;28;20048;-36
2022/08/27 03:06:18;;;;;;;3.72;0.80;;;13.20;99.90;;;;;;5047150;28;20052;-36
2022/08/27 03:08:44;;;;;;;4.78;0.93;;;13.90;99.90;;;;;;5047209;28;20037;-36
2022/08/27 03:11:11;;;;;;;2.92;0.80;;;13.20;99.90;;;;;;5046593;28;20053;-36
2022/08/27 03:13:39;;;;;;;4.25;1.05;;;13.20;99.90;;;;;;5047154;28;20041;-36
2022/08/27 03:16:06;;;;;;;4.22;1.27;;;13.20;99.90;;;;;;5046113;28;20045;-36
2022/08/27 03:18:33;;;;;;;4.88;1.33;;;13.50;99.90;;;;;;5047422;28;20618;-35
2022/08/27 03:21:00;;;;;;;7.13;1.38;;;13.20;99.90;;;;;;5046753;28;20079;-36
2022/08/27 03:23:28;;;;;;;5.35;1.17;;;13.20;99.90;;;;;;5047297;28;20056;-36
2022/08/27 03:25:56;;;;;;;5.47;1.00;;;13.20;99.90;;;;;;5046583;28;20045;-36
2022/08/27 03:28:25;;;;;;;4.82;1.00;;;13.20;99.90;;;;;;5047039;28;20146;-36
2022/08/27 03:30:57;;;;;;;3.35;0.82;;;13.50;99.90;;;;;;5046757;28;20461;-36
2022/08/27 03:33:23;;;;;;;4.47;1.17;;;13.30;99.90;;;;;;5047040;28;20110;-36
2022/08/27 03:35:49;;;;;;;3.30;1.05;;;13.30;99.90;;;;;;5046626;28;20647;-36
2022/08/27 03:38:15;;;;;;;4.28;0.95;;;13.50;99.90;;;;;;5046731;28;20047;-35
2022/08/27 03:40:42;;;;;;;4.15;1.00;;;13.30;99.90;;;;;;5046982;28;20677;-35
2022/08/27 03:43:12;;;;;;;5.45;0.90;;;13.20;99.90;;;;;;5046045;28;20533;-36
2022/08/27 03:45:41;;;;;;;5.13;1.17;;;13.20;99.90;;;;;;5046570;28;20052;-36
2022/08/27 03:48:06;;;;;;;8.02;1.52;;;13.10;99.90;;;;;;5046196;28;20580;-35
2022/08/27 03:50:32;;;;;;;5.72;1.05;;;13.10;99.90;;;;;;5046753;28;20044;-35
2022/08/27 03:52:58;;;;;;;5.40;1.15;;;13.10;99.90;;;;;;5046653;28;20045;-35
2022/08/27 03:55:23;;;;;;;5.32;0.93;;;13.00;99.90;;;;;;5046707;28;20483;-35
2022/08/27 03:57:49;;;;;;;8.25;1.23;;;13.10;99.90;;;;;;5046928;28;20048;-36
2022/08/27 04:00:15;;;;;;;7.30;1.10;;;13.00;99.90;;;;;;5046299;28;20037;-35
2022/08/27 04:02:42;;;;;;;6.78;1.20;;;13.00;99.90;;;;;;5046665;28;20106;-35
2022/08/27 04:05:12;;;;;;;4.45;1.27;;;13.00;99.90;;;;;;5045900;28;20057;-35
2022/08/27 04:07:39;;;;;;;4.07;1.20;;;13.10;99.90;;;;;;5046249;28;20814;-36
2022/08/27 04:10:08;;;;;;;8.05;2.47;;;12.90;99.90;;;;;;5045773;28;20049;-35
2022/08/27 04:12:34;;;;;;;4.45;1.20;;;12.90;99.90;;;;;;5046157;28;20076;-35
2022/08/27 04:15:00;;;;;;;8.38;1.25;;;12.90;99.90;;;;;;5046317;28;20177;-35
2022/08/27 04:17:26;;;;;;;3.05;0.88;;;13.70;99.90;;;;;;5046130;28;20044;-35
2022/08/27 04:19:52;;;;;;;3.95;1.05;;;12.80;99.90;;;;;;5046118;28;20056;-35
2022/08/27 04:22:19;;;;;;;6.93;1.25;;;13.20;99.90;;;;;;5045927;28;20497;-35
2022/08/27 04:24:46;;;;;;;3.45;0.95;;;12.80;99.90;;;;;;5046004;28;20041;-36
2022/08/27 04:27:13;;;;;;;8.82;2.13;;;12.80;99.90;;;;;;5045222;28;20037;-36
2022/08/27 04:29:39;;;;;;;5.53;1.27;;;13.60;99.90;;;;;;5045858;28;20045;-35
2022/08/27 04:32:05;;;;;;;5.07;0.95;;;12.70;99.90;;;;;;5045893;28;20635;-35
2022/08/27 04:34:31;;;;;;;5.45;1.02;;;12.80;99.90;;;;;;5045372;28;20048;-35
2022/08/27 04:36:57;;;;;;;3.13;0.95;;;13.00;99.90;;;;;;5045805;28;20083;-35
2022/08/27 04:39:26;;;;;;;5.88;1.25;;;12.70;99.90;;;;;;5045419;28;20246;-35
2022/08/27 04:41:54;;;;;;;7.85;1.42;;;12.60;99.90;;;;;;5045787;28;20152;-35
2022/08/27 04:44:21;;;;;;;7.25;1.10;;;13.20;99.90;;;;;;5045873;28;20051;-35
2022/08/27 04:46:49;;;;;;;7.88;1.60;;;12.50;99.90;;;;;;5046078;28;20049;-35
2022/08/27 04:49:16;;;;;;;2.97;1.10;;;12.80;99.90;;;;;;5045830;28;20402;-35
2022/08/27 04:51:41;;;;;;;5.07;1.42;;;12.70;99.90;;;;;;5045858;28;20044;-36
2022/08/27 04:54:08;;;;;;;7.97;1.55;;;12.40;99.90;;;;;;5045476;28;20040;-35
2022/08/27 04:56:35;;;;;;;5.60;1.77;;;12.40;99.90;;;;;;5045961;28;20120;-35
2022/08/27 04:59:03;;;;;;;7.22;1.63;;;12.40;99.90;;;;;;5045754;28;20044;-35
2022/08/27 05:01:30;;;;;;;5.88;1.98;;;12.30;99.90;;;;;;5045611;28;20049;-35
2022/08/27 05:03:57;;;;;;;5.60;1.50;;;12.20;99.90;;;;;;5045533;28;20431;-35
2022/08/27 05:06:23;;;;;;;4.18;1.40;;;12.30;99.90;;;;;;5045539;28;20175;-35
2022/08/27 05:08:50;;;;;;;6.57;1.42;;;12.20;99.90;;;;;;5045421;28;20506;-36
2022/08/27 05:11:17;;;;;;;5.85;1.63;;;12.10;99.90;;;;;;5045310;28;20061;-36
2022/08/27 05:13:44;;;;;;;3.50;1.40;;;12.20;99.90;;;;;;5045836;28;20120;-35
2022/08/27 05:16:19;;;;;;;9.30;1.38;;;12.20;99.90;;;;;;5045674;28;20548;-35
2022/08/27 05:18:46;;;;;;;3.92;1.95;;;12.50;99.90;;;;;;5045344;28;20120;-35
2022/08/27 05:21:38;;;;;;;7.35;1.98;;;12.30;99.90;;;;;;5045883;28;20037;-35
2022/08/27 05:24:06;;;;;;;6.30;1.77;;;12.40;99.90;;;;;;5044767;28;20049;-35
2022/08/27 05:26:33;;;;;;;6.50;1.90;;;12.60;99.90;;;;;;5045285;28;20029;-35
2022/08/27 05:29:00;;;;;;;4.00;1.60;;;12.90;99.90;;;;;;5045369;28;20095;-35
2022/08/27 05:31:27;;;;;;;5.15;1.58;;;13.00;99.90;;;;;;5045365;28;20045;-35
2022/08/27 05:33:55;;;;;;;5.40;1.92;;;13.50;99.90;;;;;;5045619;28;20049;-35
2022/08/27 05:36:29;;;;;;;4.28;1.95;;;13.50;99.90;;;;;;5045160;28;20060;-35
2022/08/27 05:38:57;;;;;;;5.75;1.58;;;13.60;99.90;;;;;;5045505;28;20391;-35
2022/08/27 05:41:26;;;;;;;4.07;1.67;;;13.70;99.90;;;;;;5049161;28;20449;-35
2022/08/27 05:43:53;;;;;;;6.15;1.48;;;14.10;99.90;;;;;;5048717;28;20076;-36
2022/08/27 05:46:21;;;;;;;3.15;1.40;;;14.00;99.90;;;;;;5048570;28;20524;-35
2022/08/27 05:48:48;;;;;;;8.70;1.50;;;14.10;99.90;;;;;;5048923;28;20128;-35
2022/08/27 05:51:15;;;;;;;3.67;1.23;;;14.30;99.90;;;;;;5048851;28;20110;-36
2022/08/27 05:53:41;;;;;;;3.10;1.25;;;14.50;99.90;;;;;;5048999;28;20053;-35
2022/08/27 05:56:19;;;;;;;7.80;1.40;;;14.70;99.90;;;;;;5048716;28;20095;-35
2022/08/27 06:01:38;;;;;;;3.92;0.85;;;15.10;99.90;;;;;;5048704;28;20052;-36
2022/08/27 06:04:05;;;;;;;7.22;1.42;;;15.20;99.90;;;;;;5048494;28;20807;-35
2022/08/27 06:06:34;;;;;;;7.25;1.10;;;15.40;99.90;;;;;;5048574;28;20040;-35
2022/08/27 06:09:00;;;;;;;3.00;0.70;;;15.90;99.90;;;;;;5048942;28;20518;-36
2022/08/27 06:11:27;;;;;;;6.53;0.98;;;16.00;99.90;;;;;;5048389;28;20056;-36
2022/08/27 06:13:54;;;;;;;7.68;1.50;;;16.00;99.90;;;;;;5049272;28;20383;-35
2022/08/27 06:16:20;;;;;;;5.43;1.05;;;16.20;99.90;;;;;;5048539;28;20509;-36
2022/08/27 06:18:47;;;;;;;4.72;0.80;;;16.90;99.90;;;;;;5048607;28;20036;-35
2022/08/27 06:21:15;;;;;;;8.55;1.20;;;17.80;99.90;;;;;;5048404;28;20043;-36
2022/08/27 06:23:41;;;;;;;7.05;0.70;;;18.40;99.90;;;;;;5048754;28;20545;-36
2022/08/27 06:26:10;;;;;;;4.75;0.80;;;18.50;99.90;;;;;;5048393;28;20418;-36
2022/08/27 06:28:36;;;;;;;13.23;2.08;;;18.40;99.90;;;;;;5048009;28;20246;-36
2022/08/27 06:31:14;;;;;;;3.40;0.52;;;18.30;99.90;;;;;;5048142;28;20044;-35
2022/08/27 06:33:41;;;;;;;5.20;0.60;;;18.30;99.90;;;;;;5048243;28;20037;-36
2022/08/27 06:36:10;;;;;;;6.70;1.00;;;18.30;99.90;;;;;;5047842;28;20041;-36
2022/08/27 06:38:36;;;;;;;4.63;0.75;;;18.30;99.90;;;;;;5047812;28;20463;-36
2022/08/27 06:41:04;;;;;;;4.18;0.80;;;18.50;99.90;;;;;;5048238;28;20036;-36
2022/08/27 06:43:30;;;;;;;2.97;0.82;;;18.90;99.90;;;;;;5048489;28;20124;-36
2022/08/27 06:45:55;;;;;;;5.00;1.00;;;20.50;99.90;;;;;;5048186;28;20431;-36
2022/08/27 06:48:21;;;;;;;2.17;0.50;;;21.50;99.90;;;;;;5048281;28;20041;-36
2022/08/27 06:50:47;;;;;;;3.58;0.60;;;21.50;99.90;;;;;;5048155;28;20045;-36
2022/08/27 06:53:13;;;;;;;4.13;0.47;;;21.00;99.90;;;;;;5047814;28;20051;-36
2022/08/27 06:55:44;;;;;;;7.45;1.15;;;20.80;99.90;;;;;;5047705;28;20041;-36
2022/08/27 06:58:10;;;;;;;5.13;0.77;;;20.60;99.90;;;;;;5047742;28;20521;-36
2022/08/27 07:00:36;;;;;;;3.53;0.40;;;20.50;99.90;;;;;;5047284;28;20044;-36
2022/08/27 07:03:04;;;;;;;4.32;0.60;;;20.70;99.90;;;;;;5047887;28;20037;-36
2022/08/27 07:05:34;;;;;;;3.35;0.40;;;21.60;99.90;;;;;;5047575;28;20048;-36
2022/08/27 07:08:00;;;;;;;2.40;0.43;;;21.70;99.60;;;;;;5047549;28;20048;-36
2022/08/27 07:10:26;;;;;;;8.15;0.80;;;21.60;99.20;;;;;;5047047;28;20048;-36
2022/08/27 07:12:51;;;;;;;3.00;0.50;;;21.60;99.00;;;;;;5047672;28;20469;-36
2022/08/27 07:15:17;;;;;;;5.60;1.10;;;21.60;99.10;;;;;;5047763;28;20110;-36
2022/08/27 07:17:46;;;;;;;2.05;0.30;;;21.60;98.90;;;;;;5047535;28;20043;-36
2022/08/27 07:20:13;;;;;;;5.03;0.50;;;21.60;98.70;;;;;;5046819;28;20040;-36
2022/08/27 07:22:41;;;;;;;6.03;0.77;;;21.70;97.70;;;;;;5046964;28;20499;-36
2022/08/27 07:25:11;;;;;;;5.55;1.27;;;21.90;97.10;;;;;;5047009;28;20391;-36
2022/08/27 07:27:37;;;;;;;4.30;0.50;;;22.10;96.70;;;;;;5046984;28;20040;-36
2022/08/27 07:30:05;;;;;;;3.67;0.25;;;22.20;96.70;;;;;;5047298;28;20120;-36
2022/08/27 07:32:31;;;;;;;3.30;0.77;;;22.20;96.20;;;;;;5047035;28;20052;-36
2022/08/27 07:34:57;;;;;;;4.05;0.52;;;22.20;95.50;;;;;;5046563;28;20391;-36
2022/08/27 07:37:22;;;;;;;4.60;0.70;;;22.20;95.20;;;;;;5045474;28;20084;-36
2022/08/27 07:39:48;;;;;;;4.38;0.30;;;22.20;94.40;;;;;;5046764;28;20040;-36
2022/08/27 07:44:58;;;;;;;5.85;0.70;;;22.10;94.70;;;;;;5046748;28;20596;-36
2022/08/27 07:47:24;;;;;;;7.72;0.75;;;22.00;95.40;;;;;;5046551;28;20044;-36
2022/08/27 07:49:49;;;;;;;3.67;0.70;;;21.90;94.90;;;;;;5046438;28;20049;-36
2022/08/27 07:52:15;;;;;;;5.82;0.65;;;21.80;94.60;;;;;;5046977;28;20068;-36
2022/08/27 07:54:41;;;;;;;6.47;0.47;;;21.70;94.60;;;;;;5046315;28;20491;-36
2022/08/27 07:57:08;;;;;;;3.47;0.50;;;21.70;94.70;;;;;;5046491;28;20035;-36
2022/08/27 07:59:35;;;;;;;5.85;0.60;;;21.60;94.60;;;;;;5046090;28;20075;-36
2022/08/27 08:02:00;;;;;;;6.35;0.60;;;21.70;94.30;;;;;;5045903;28;20039;-36
2022/08/27 08:04:26;;;;;;;2.13;0.30;;;21.70;94.20;;;;;;5046358;28;20049;-36
2022/08/27 08:06:53;;;;;;;5.43;0.50;;;21.90;94.50;;;;;;5046523;28;20469;-36
2022/08/27 08:09:21;;;;;;;4.53;0.70;;;22.00;94.70;;;;;;5046413;28;20120;-36
2022/08/27 08:11:46;;;;;;;7.50;0.60;;;22.00;94.60;;;;;;5045485;28;20164;-36
2022/08/27 08:14:12;;;;;;;4.50;0.60;;;22.00;93.80;;;;;;5046156;28;20124;-36
2022/08/27 08:16:39;;;;;;;4.95;0.50;;;22.20;94.00;;;;;;5046332;28;20356;-36
2022/08/27 08:19:05;;;;;;;5.00;0.52;;;22.40;94.00;;;;;;5046298;28;20044;-36
2022/08/27 08:21:30;;;;;;;5.47;0.50;;;22.60;93.50;;;;;;5044124;28;20057;-36
2022/08/27 08:23:56;;;;;;;4.50;1.15;;;22.70;93.20;;;;;;5046220;28;20040;-36
2022/08/27 08:26:22;;;;;;;5.13;0.50;;;22.80;92.10;;;;;;5046032;28;20518;-36
2022/08/27 08:28:48;;;;;;;6.85;0.60;;;22.70;91.60;;;;;;5045408;28;20080;-36
2022/08/27 08:31:14;;;;;;;10.40;2.80;;;22.50;91.60;;;;;;5045964;28;20154;-36
2022/08/27 08:33:39;;;;;;;3.47;0.50;;;22.40;91.90;;;;;;5046076;28;20455;-36
2022/08/27 08:36:08;;;;;;;3.08;0.40;;;22.40;92.20;;;;;;5046101;28;20068;-36
2022/08/27 08:38:36;;;;;;;4.03;0.47;;;22.30;92.50;;;;;;5045807;28;20508;-36
2022/08/27 08:41:03;;;;;;;6.63;0.63;;;22.40;92.40;;;;;;5045740;28;20072;-36
2022/08/27 08:43:33;;;;;;;5.18;0.40;;;22.50;92.20;;;;;;5045753;28;20044;-36
2022/08/27 08:46:08;;;;;;;6.28;0.45;;;22.60;91.90;;;;;;5045662;28;20052;-36
2022/08/27 08:48:35;;;;;;;5.20;0.50;;;24.20;90.70;;;;;;5045440;28;20118;-36
2022/08/27 08:51:09;;;;;;;5.05;0.35;;;24.80;89.00;;;;;;5045473;28;20060;-36
2022/08/27 08:53:40;;;;;;;3.38;0.30;;;24.80;86.60;;;;;;5045769;28;20479;-36
2022/08/27 08:56:10;;;;;;;;;;;24.90;85.20;;;;;;5045516;28;20045;-36
2022/08/27 08:58:44;;;;;;;3.63;0.45;;;25.10;86.00;;;;;;5044690;28;19920;-36
2022/08/27 09:01:14;;;;;;;7.32;0.90;;;25.40;83.80;;;;;;5045487;28;20048;-36
2022/08/27 09:03:45;;;;;;;4.38;0.30;;;26.60;81.40;;;;;;5046307;28;20394;-36
2022/08/27 09:06:27;;;;;;;4.07;0.60;;;26.60;77.70;;;;;;5043797;28;20056;-36
2022/08/27 09:08:53;;;;;;;2.58;0.45;;;26.00;75.80;;;;;;5045705;28;20056;-36
2022/08/27 09:11:31;;;;;;;4.85;0.80;;;25.60;76.90;;;;;;5045378;28;20061;-36
2022/08/27 09:14:04;;;;;;;6.50;0.65;;;25.30;77.40;;;;;;5047226;28;20041;-37
2022/08/27 09:16:31;;;;;;;4.82;0.70;;;25.00;78.00;;;;;;5049853;28;20056;-37
2022/08/27 09:19:00;;;;;;;6.07;0.30;;;24.90;77.90;;;;;;5049378;28;20036;-36
2022/08/27 09:21:54;;;;;;;6.45;0.52;;;25.00;77.70;;;;;;5048110;28;20045;-36
2022/08/27 09:24:28;;;;;;;4.35;0.40;;;25.10;77.50;;;;;;5049165;28;20039;-36
2022/08/27 09:26:54;;;;;;;4.43;0.50;;;24.90;77.90;;;;;;5049016;28;20067;-36
2022/08/27 09:29:24;;;;;;;5.45;0.60;;;24.90;78.10;;;;;;5048989;28;20542;-37
2022/08/27 09:32:05;;;;;;;3.58;0.50;;;25.00;77.20;;;;;;5049058;28;20049;-37
2022/08/27 09:34:39;;;;;;;4.40;0.50;;;25.10;76.90;;;;;;5048752;28;20053;-36
2022/08/27 09:37:07;;;;;;;3.50;0.40;;;24.90;76.30;;;;;;5048916;28;20107;-36
2022/08/27 09:39:51;;;;;;;4.07;0.52;;;24.80;76.60;;;;;;5048612;28;20049;-36
2022/08/27 09:42:26;;;;;;;4.78;0.77;;;24.80;76.60;;;;;;5048930;28;20510;-36
2022/08/27 09:44:53;;;;;;;9.10;0.60;;;24.90;77.30;;;;;;5048848;28;20044;-36
2022/08/27 09:47:18;;;;;;;5.85;0.38;;;25.00;77.90;;;;;;5048917;28;20120;-36
2022/08/27 09:49:44;;;;;;;7.55;1.15;;;24.90;76.20;;;;;;5048479;28;20128;-36
2022/08/27 09:52:36;;;;;;;3.78;0.55;;;24.70;75.70;;;;;;5048480;28;20114;-36
2022/08/27 09:55:02;;;;;;;5.82;0.55;;;24.50;76.40;;;;;;5048593;28;20398;-36
2022/08/27 09:57:34;;;;;;;9.20;0.50;;;24.40;78.20;;;;;;5048304;28;20308;-36
2022/08/27 10:00:01;;;;;;;4.60;0.38;;;24.40;77.40;;;;;;5047942;28;20056;-36
2022/08/27 10:02:27;;;;;;;3.95;0.50;;;24.40;78.00;;;;;;5047667;28;20040;-36
2022/08/27 10:05:00;;;;;;;6.72;0.70;;;24.40;77.40;;;;;;5049024;28;20064;-36
2022/08/27 10:07:52;;;;;;;5.00;0.52;;;24.40;77.30;;;;;;5048752;28;20045;-36
2022/08/27 10:10:35;;;;;;;4.50;0.60;;;24.30;76.90;;;;;;5048462;28;20380;-36
2022/08/27 10:13:12;;;;;;;2.72;0.25;;;24.30;76.90;;;;;;5048145;28;20079;-36
2022/08/27 10:16:09;;;;;;;6.43;0.70;;;24.20;76.90;;;;;;5047653;28;20499;-36
2022/08/27 10:18:40;;;;;;;3.78;0.43;;;24.20;77.80;;;;;;5048242;28;20131;-36
2022/08/27 10:21:27;;;;;;;5.18;0.70;;;24.20;77.90;;;;;;5048260;28;20099;-36
2022/08/27 10:24:11;;;;;;;6.15;0.60;;;24.20;78.20;;;;;;5048323;28;20083;-36
2022/08/27 10:26:57;;;;;;;5.00;0.40;;;24.30;78.60;;;;;;5047512;28;20044;-36
2022/08/27 10:29:31;;;;;;;4.78;1.05;;;24.30;78.00;;;;;;5047790;28;20490;-36
2022/08/27 10:32:15;;;;;;;8.23;1.08;;;24.40;76.40;;;;;;5047620;28;20036;-36
2022/08/27 10:35:15;;;;;;;2.92;0.25;;;24.20;74.40;;;;;;5047793;28;20136;-36
2022/08/27 10:37:46;;;;;;;6.20;1.17;;;24.10;77.50;;;;;;5042710;28;20052;-36
2022/08/27 10:40:20;;;;;;;7.55;0.38;;;24.10;77.30;;;;;;5047867;28;20055;-36
2022/08/27 10:42:59;;;;;;;3.72;0.50;;;24.10;78.20;;;;;;5048011;28;20409;-36
2022/08/27 10:45:57;;;;;;;5.68;0.77;;;24.30;78.50;;;;;;5047902;28;20059;-36
2022/08/27 10:48:33;;;;;;;6.47;1.08;;;24.60;78.70;;;;;;5042541;28;20140;-36
2022/08/27 10:51:14;;;;;;;5.03;0.50;;;24.70;77.60;;;;;;5047450;28;20098;-36
2022/08/27 10:53:52;;;;;;;3.75;0.43;;;24.70;76.30;;;;;;5047403;28;20041;-36
2022/08/27 10:56:37;;;;;;;3.88;0.32;;;24.80;76.40;;;;;;5047096;28;20098;-36
2022/08/27 10:59:31;;;;;;;6.40;0.30;;;24.80;75.80;;;;;;5047482;28;20045;-37
2022/08/27 11:02:05;;;;;;;3.20;0.30;;;24.90;75.10;;;;;;5047080;28;20052;-36
2022/08/27 11:04:38;;;;;;;5.68;1.27;;;24.80;74.70;;;;;;5047719;28;20063;-36
2022/08/27 11:07:27;;;;;;;6.93;0.50;;;24.70;73.80;;;;;;5047350;28;20128;-36
2022/08/27 11:10:05;;;;;;;3.35;0.28;;;24.80;74.30;;;;;;5047301;28;20048;-36
2022/08/27 11:12:35;;;;;;;3.00;0.70;;;24.90;74.80;;;;;;5047441;28;20069;-36
2022/08/27 11:15:09;;;;;;;2.80;0.40;;;25.10;74.90;;;;;;5047586;28;20041;-36
2022/08/27 11:18:07;;;;;;;6.38;0.65;;;25.00;73.60;;;;;;5048011;28;20268;-36
2022/08/27 11:21:01;;;;;;;2.25;0.30;;;25.10;71.70;;;;;;5047172;28;20120;-36
2022/08/27 11:23:40;;;;;;;3.95;0.30;;;25.20;72.00;;;;;;5047360;28;20037;-36
2022/08/27 11:26:06;;;;;;;5.18;0.50;;;25.10;70.30;;;;;;5046813;28;20463;-36
2022/08/27 11:28:40;;;;;;;4.18;0.47;;;24.80;69.10;;;;;;5046813;28;20743;-36
2022/08/27 11:31:12;;;;;;;2.70;0.40;;;24.70;70.20;;;;;;5046719;28;20355;-36
2022/08/27 11:33:45;;;;;;;3.75;0.32;;;24.70;71.40;;;;;;5047320;28;20045;-36
2022/08/27 11:36:30;;;;;;;7.00;0.50;;;24.60;73.00;;;;;;5046978;28;20059;-37
2022/08/27 11:39:19;;;;;;;4.40;0.40;;;24.50;73.00;;;;;;5046671;28;20044;-36
2022/08/27 11:42:08;;;;;;;4.03;0.40;;;24.40;73.80;;;;;;5034076;28;20457;-36
2022/08/27 11:44:42;;;;;;;2.10;0.20;;;24.20;72.10;;;;;;5046562;28;20056;-37
2022/08/27 11:47:13;;;;;;;3.97;0.50;;;24.10;72.90;;;;;;5046010;28;20446;-38
2022/08/27 11:49:47;;;;;;;4.18;0.45;;;24.00;73.80;;;;;;5046625;28;20041;-38
2022/08/27 11:52:28;;;;;;;6.45;0.60;;;23.90;73.70;;;;;;5045242;28;20448;-38
2022/08/27 11:55:26;;;;;;;6.55;0.60;;;23.90;73.00;;;;;;5046524;28;20051;-38
2022/08/27 11:58:06;;;;;;;2.17;0.20;;;23.80;72.30;;;;;;5046810;28;20123;-37
2022/08/27 12:00:36;;;;;;;3.60;0.35;;;24.10;74.10;;;;;;5046877;28;20040;-37
2022/08/27 12:03:08;;;;;;;2.45;0.30;;;24.20;74.30;;;;;;5046245;28;20037;-38
2022/08/27 12:06:04;;;;;;;4.75;0.50;;;24.30;73.60;;;;;;5046423;28;20483;-38
2022/08/27 12:08:33;;;;;;;4.45;0.57;;;24.40;73.10;;;;;;5046184;28;20781;-38
2022/08/27 12:11:17;;;;;;;4.03;0.20;;;24.40;72.50;;;;;;5045468;28;20056;-38
2022/08/27 12:14:03;;;;;;;8.00;0.63;;;24.40;71.90;;;;;;5045614;28;20053;-38
2022/08/27 12:16:35;;;;;;;5.03;0.45;;;24.70;72.50;;;;;;5046402;28;20045;-38
2022/08/27 12:19:16;;;;;;;7.55;0.60;;;24.70;71.40;;;;;;5046053;28;20106;-37
2022/08/27 12:21:47;;;;;;;4.37;0.50;;;24.60;70.80;;;;;;5046600;28;20078;-37
2022/08/27 12:24:22;;;;;;;;;;;24.40;70.50;;;;;;5046689;28;20048;-37
2022/08/27 12:27:01;;;;;;;4.05;0.43;;;24.10;70.50;;;;;;5046665;28;19927;-37
2022/08/27 12:30:01;;;;;;;7.97;0.63;;;24.10;71.30;;;;;;5046968;28;20044;-37
2022/08/27 12:32:36;;;;;;;6.53;0.82;;;24.10;71.00;;;;;;5046857;28;20368;-37
2022/08/27 12:35:27;;;;;;;6.80;1.00;;;24.00;71.50;;;;;;5046330;28;20115;-38
2022/08/27 12:38:04;;;;;;;3.37;0.20;;;24.20;72.50;;;;;;5045817;28;20552;-37
2022/08/27 12:40:45;;;;;;;4.22;0.65;;;24.40;71.90;;;;;;5045642;28;20505;-38
2022/08/27 12:43:14;;;;;;;4.45;0.43;;;24.40;69.60;;;;;;5044620;28;20057;-37
2022/08/27 12:45:50;;;;;;;3.67;0.45;;;24.50;69.60;;;;;;5046016;28;20430;-37
2022/08/27 12:48:22;;;;;;;4.80;0.35;;;24.40;70.20;;;;;;5045898;28;20552;-37
2022/08/27 12:50:55;;;;;;;;;;;24.30;69.60;;;;;;5050675;28;20041;-38
2022/08/27 12:53:51;;;;;;;4.70;0.40;;;24.10;71.10;;;;;;5050123;28;19999;-37
2022/08/27 12:56:17;;;;;;;6.60;0.60;;;23.80;72.10;;;;;;5049748;28;20056;-38
2022/08/27 12:59:19;;;;;;;4.88;0.28;;;23.50;73.40;;;;;;5049931;28;20490;-37
2022/08/27 13:01:45;;;;;;;5.88;0.50;;;23.20;74.60;;;;;;5050048;28;20037;-38
2022/08/27 13:04:26;;;;;;;3.72;0.65;;;22.90;75.00;;;;;;5049451;28;20132;-38
2022/08/27 13:06:52;;;;;;;5.07;0.40;;;22.90;75.50;;;;;;5050171;28;20045;-37
2022/08/27 13:09:30;;;;;;;6.10;0.40;;;22.80;75.40;;;;;;5049218;28;20375;-38
2022/08/27 13:11:58;;;;;;;8.25;0.45;;;22.80;75.90;;;;;;5049486;28;20137;-38